Burgtor — V2OR7 — position and weather

sailwx.info

Track history (hours):
 
Tides and Currents Weather Stations Pressure Air Temp Water Temp Dewpoint Dewpoint Depression Visibility Wind Speed Wind Dir Waves Ship Positions

Burgtor

Last reported at 2016-May-31 21:33 UTC. Time now 2016-May-31 21:50 UTC.
Position N 53°31' E 009°57'.

Length 87 m; draft 3.2 m.

Type: Cargo ship. MMSI: 304665000.

Date/timePositionNaut miles runAvg speedWind from/ knotsBaromVisibWave heightAir tempDewpointWater temp
2016-May-31 21:33N 53°31' E 009°57'1 1.4
2016-May-31 20:33N 53°32' E 009°56'1110.9
2016-May-31 19:34N 53°35' E 009°38'3 3.3
2016-May-31 18:31N 53°37' E 009°33'0 0.0
2016-May-31 17:31N 53°37' E 009°33'0 0.1
2016-May-31 16:31N 53°37' E 009°33'0 0.1
2016-May-31 15:25N 53°37' E 009°33'0 0.0
2016-May-31 14:31N 53°37' E 009°33'0 0.0
2016-May-31 13:31N 53°37' E 009°33'0 0.0
2016-May-31 12:31N 53°37' E 009°33'0 0.0
2016-May-31 11:31N 53°37' E 009°33'0 0.0
2016-May-31 10:31N 53°37' E 009°33'0 0.1
2016-May-31 09:31N 53°37' E 009°33'0 0.0
2016-May-31 08:31N 53°37' E 009°33'0 0.0
2016-May-31 07:31N 53°37' E 009°33'0 0.0
2016-May-31 06:31N 53°37' E 009°33'0 0.0
2016-May-31 04:34N 53°37' E 009°33'0 0.1
2016-May-31 03:30N 53°37' E 009°33'0 0.0
2016-May-31 02:30N 53°37' E 009°33'0 0.0
2016-May-31 01:33N 53°37' E 009°33'0 0.0
2016-May-31 00:33N 53°37' E 009°33'0 0.0
2016-May-30 23:33N 53°37' E 009°33'0 0.0
2016-May-30 22:33N 53°37' E 009°33'0 0.0
2016-May-30 21:33N 53°37' E 009°33'0 0.1
2016-May-30 20:33N 53°37' E 009°33'0 0.0
2016-May-30 19:33N 53°37' E 009°33'0 0.0
2016-May-30 18:30N 53°37' E 009°33'0 0.0
2016-May-30 17:33N 53°37' E 009°33'0 0.0
2016-May-30 16:30N 53°37' E 009°33'0 0.1
2016-May-30 15:33N 53°37' E 009°33'0 0.0
2016-May-30 14:33N 53°37' E 009°33'0 0.0
2016-May-30 13:33N 53°37' E 009°33'0 0.0
2016-May-30 12:33N 53°37' E 009°33'0 0.0
2016-May-30 11:30N 53°37' E 009°33'0 0.0
2016-May-30 10:33N 53°37' E 009°33'0 0.1
2016-May-30 09:33N 53°37' E 009°33'0 0.1
2016-May-30 08:30N 53°37' E 009°33'0 0.0
2016-May-30 07:30N 53°37' E 009°33'0 0.0
2016-May-30 06:30N 53°37' E 009°33'0 0.0
2016-May-30 05:33N 53°37' E 009°33'0 0.0
2016-May-30 04:33N 53°37' E 009°33'0 0.0
2016-May-30 03:33N 53°37' E 009°33'0 0.1
2016-May-30 02:30N 53°37' E 009°33'0 0.0
2016-May-30 01:30N 53°37' E 009°33'0 0.0
2016-May-30 00:33N 53°37' E 009°33'0 0.0
2016-May-29 23:33N 53°37' E 009°33'0 0.0
2016-May-29 22:33N 53°37' E 009°33'0 0.0
2016-May-29 21:30N 53°37' E 009°33'0 0.1
2016-May-29 20:33N 53°37' E 009°33'0 0.1
2016-May-29 19:33N 53°37' E 009°33'0 0.0
2016-May-29 18:33N 53°37' E 009°33'0 0.0
2016-May-29 17:32N 53°37' E 009°33'0 0.0
2016-May-29 16:32N 53°37' E 009°33'0 0.0
2016-May-29 15:32N 53°37' E 009°33'0 0.1
2016-May-29 14:32N 53°37' E 009°33'0 0.1
2016-May-29 13:29N 53°37' E 009°33'0 0.4
2016-May-29 12:33N 53°37' E 009°33'6 5.8
2016-May-29 11:33N 53°43' E 009°29'7 6.9
2016-May-29 10:33N 53°48' E 009°22'6 6.2
2016-May-29 09:33N 53°52' E 009°15'6 6.0
2016-May-29 08:34N 53°52' E 009°05'7 6.9
2016-May-29 07:33N 53°50' E 008°53'7 7.5
2016-May-29 06:33N 53°54' E 008°42'8 7.9
2016-May-29 05:32N 53°58' E 008°31'8 8.3
2016-May-29 04:31N 53°59' E 008°16'9 9.0
2016-May-29 03:33N 53°58' E 008°02'6 6.0
2016-May-29 02:34N 53°56' E 007°52'7 7.5
2016-May-29 01:33N 53°55' E 007°40'8 7.6
2016-May-29 00:33N 53°53' E 007°27'8 7.8
2016-May-28 23:33N 53°51' E 007°14'8 8.0
2016-May-28 22:33N 53°50' E 007°01'8 8.2
2016-May-28 21:33N 53°48' E 006°47'8 7.6
2016-May-28 20:33N 53°46' E 006°35'7 6.9
2016-May-28 19:33N 53°44' E 006°24'7 6.8
2016-May-28 18:33N 53°42' E 006°13'8 7.6
2016-May-28 17:33N 53°40' E 006°00'8 7.5
2016-May-28 16:33N 53°38' E 005°48'7 7.1
2016-May-28 15:33N 53°36' E 005°37'7 7.1
2016-May-28 14:33N 53°33' E 005°26'6 6.4
2016-May-28 13:33N 53°31' E 005°15'6 6.1
2016-May-28 12:33N 53°29' E 005°06'8 6.8
2016-May-28 11:23N 53°26' E 004°53'32 7.5
2016-May-28 07:05N 52°60' E 004°22'59 7.8
2016-May-27 23:33N 52°44' E 002°48'9 9.0
2016-May-27 22:33N 52°44' E 002°33'18 9.2
2016-May-27 20:33N 52°44' E 002°03'8 8.1
2016-May-27 19:33N 52°47' E 001°50'8 7.5
2016-May-27 18:33N 52°51' E 001°40'7 6.9
2016-May-27 17:33N 52°55' E 001°31'6 6.1
2016-May-27 16:33N 52°58' E 001°22'8 6.5
2016-May-27 15:17N 53°01' E 001°09'5 7.0
2016-May-27 14:31N 53°04' E 001°01'8 7.9
2016-May-27 13:33N 53°09' E 000°52'8 7.8
2016-May-27 12:33N 53°14' E 000°43'7 7.3
2016-May-27 11:33N 53°09' E 000°35'9 8.8
2016-May-27 10:33N 53°02' E 000°27'6 5.6
2016-May-27 09:32N 52°57' E 000°21'0 0.1
2016-May-27 08:33N 52°57' E 000°21'0 0.0
2016-May-27 07:31N 52°57' E 000°21'0 0.0
2016-May-27 06:31N 52°57' E 000°21'0 0.0
2016-May-27 05:31N 52°57' E 000°21'0 0.0
2016-May-27 04:32N 52°57' E 000°21'0 0.1
2016-May-27 03:31N 52°57' E 000°21'0 0.0
2016-May-27 02:28N 52°57' E 000°21'0 0.0
2016-May-27 01:31N 52°57' E 000°21'0 0.0
2016-May-27 00:31N 52°57' E 000°21'0 0.0
2016-May-26 23:31N 52°57' E 000°21'0 0.0
2016-May-26 22:31N 52°57' E 000°21'0 0.1
2016-May-26 21:31N 52°57' E 000°21'0 0.0
2016-May-26 20:31N 52°57' E 000°21'0 0.0
2016-May-26 19:31N 52°57' E 000°21'0 0.0
2016-May-26 18:31N 52°57' E 000°21'0 0.0
2016-May-26 17:33N 52°57' E 000°21'0 0.0
2016-May-26 16:28N 52°57' E 000°21'0 0.1
2016-May-26 15:31N 52°57' E 000°21'0 0.0
2016-May-26 14:31N 52°57' E 000°21'0 0.0
2016-May-26 13:28N 52°57' E 000°21'0 0.0
2016-May-26 12:28N 52°57' E 000°21'0 0.0
2016-May-26 11:31N 52°57' E 000°21'0 0.0
2016-May-26 10:28N 52°57' E 000°21'0 0.0
2016-May-26 09:31N 52°57' E 000°21'0 0.1
2016-May-26 08:31N 52°57' E 000°21'0 0.1
2016-May-26 07:28N 52°57' E 000°21'0 0.0
2016-May-26 06:31N 52°57' E 000°21'0 0.0
2016-May-26 05:28N 52°57' E 000°21'0 0.0
2016-May-26 04:31N 52°57' E 000°21'0 0.1
2016-May-26 03:31N 52°57' E 000°21'0 0.0
2016-May-26 02:34N 52°57' E 000°21'0 0.0
2016-May-26 01:34N 52°57' E 000°21'0 0.0
2016-May-26 00:33N 52°57' E 000°21'0 0.0
2016-May-25 23:33N 52°57' E 000°21'0 0.0
2016-May-25 22:33N 52°57' E 000°21'0 0.0
2016-May-25 21:31N 52°57' E 000°21'0 0.1
2016-May-25 20:33N 52°57' E 000°21'0 0.0
2016-May-25 19:33N 52°57' E 000°21'0 0.0
2016-May-25 18:33N 52°57' E 000°21'0 0.0
2016-May-25 17:30N 52°57' E 000°21'0 0.0
2016-May-25 16:33N 52°57' E 000°21'0 0.0
2016-May-25 15:27N 52°57' E 000°21'0 0.0
2016-May-25 14:33N 52°57' E 000°21'0 0.1
2016-May-25 13:33N 52°57' E 000°21'0 0.0
2016-May-25 12:33N 52°57' E 000°21'0 0.0
2016-May-25 11:18N 52°57' E 000°21'0 0.0
2016-May-25 10:33N 52°57' E 000°21'0 0.1
2016-May-25 09:33N 52°57' E 000°21'0 0.0
2016-May-25 08:30N 52°57' E 000°21'0 0.0
2016-May-25 07:33N 52°57' E 000°21'0 0.0
2016-May-25 06:33N 52°57' E 000°21'0 0.0
2016-May-25 05:33N 52°57' E 000°21'0 0.0
2016-May-25 04:30N 52°57' E 000°21'0 0.0
2016-May-25 03:27N 52°57' E 000°21'0 0.0
2016-May-25 02:33N 52°57' E 000°21'0 0.0
2016-May-25 01:33N 52°57' E 000°21'0 0.1
2016-May-25 00:30N 52°57' E 000°21'0 0.0
2016-May-24 23:30N 52°57' E 000°21'0 0.0
2016-May-24 22:30N 52°57' E 000°21'2 2.4
2016-May-24 21:33N 52°56' E 000°18'8 7.5
2016-May-24 20:33N 52°49' E 000°13'2 2.4
2016-May-24 19:32N 52°47' E 000°12'0 0.0
2016-May-24 18:26N 52°47' E 000°12'0 0.0
2016-May-24 17:32N 52°47' E 000°12'0 0.0
2016-May-24 16:32N 52°47' E 000°12'0 0.0
2016-May-24 15:32N 52°47' E 000°12'0 0.0
2016-May-24 14:26N 52°47' E 000°12'0 0.0
2016-May-24 13:32N 52°47' E 000°12'0 0.0
2016-May-24 12:32N 52°47' E 000°12'0 0.0
2016-May-24 11:26N 52°47' E 000°12'0 0.0
2016-May-24 10:32N 52°47' E 000°12'0 0.0
2016-May-24 09:29N 52°47' E 000°12'0 0.0
2016-May-24 08:32N 52°47' E 000°12'0 0.0
2016-May-24 07:32N 52°47' E 000°12'0 0.0
2016-May-24 06:26N 52°47' E 000°12'0 0.0
2016-May-24 05:32N 52°47' E 000°12'0 0.0
2016-May-24 04:29N 52°47' E 000°12'0 0.0
2016-May-24 03:32N 52°47' E 000°12'0 0.0
2016-May-24 02:29N 52°47' E 000°12'0 0.0
2016-May-24 01:32N 52°47' E 000°12'0 0.0
2016-May-24 00:32N 52°47' E 000°12'0 0.0
2016-May-23 23:29N 52°47' E 000°12'0 0.0
2016-May-23 22:29N 52°47' E 000°12'0 0.0
2016-May-23 21:29N 52°47' E 000°12'0 0.0
2016-May-23 20:32N 52°47' E 000°12'0 0.0
2016-May-23 19:29N 52°47' E 000°12'0 0.0
2016-May-23 18:32N 52°47' E 000°12'0 0.0
2016-May-23 17:32N 52°47' E 000°12'0 0.0
2016-May-23 16:32N 52°47' E 000°12'0 0.0
2016-May-23 15:26N 52°47' E 000°12'0 0.0
2016-May-23 14:32N 52°47' E 000°12'0 0.0
2016-May-23 13:32N 52°47' E 000°12'0 0.0
2016-May-23 12:32N 52°47' E 000°12'0 0.0
2016-May-23 11:33N 52°47' E 000°12'0 0.0
2016-May-23 10:33N 52°47' E 000°12'0 0.0
2016-May-23 09:34N 52°47' E 000°12'0 0.0
2016-May-23 08:33N 52°47' E 000°12'1 1.1
2016-May-23 07:33N 52°48' E 000°13'4 3.9
2016-May-23 06:33N 52°52' E 000°14'3 3.0
2016-May-23 05:33N 52°54' E 000°16'1 1.4
2016-May-23 04:33N 52°56' E 000°17'5 5.4
2016-May-23 03:33N 52°60' E 000°23'4 3.8
2016-May-23 02:33N 53°03' E 000°27'4 4.0
2016-May-23 01:33N 53°06' E 000°31'5 4.6
2016-May-23 00:33N 53°10' E 000°35'5 4.6
2016-May-22 23:33N 53°13' E 000°39'3 3.4
2016-May-22 22:32N 53°14' E 000°45'5 5.3
2016-May-22 21:33N 53°11' E 000°52'5 5.3
2016-May-22 20:33N 53°07' E 000°58'5 5.0
2016-May-22 19:31N 53°04' E 001°04'5 4.9
2016-May-22 18:33N 53°01' E 001°11'5 5.1
2016-May-22 17:33N 52°59' E 001°19'5 5.0
2016-May-22 16:34N 52°57' E 001°26'6 5.8
2016-May-22 15:33N 52°54' E 001°34'7 6.9
2016-May-22 14:33N 52°50' E 001°44'7 6.5
2016-May-22 13:33N 52°46' E 001°53'  
Track history (hours):
 
Tides and Currents Weather Stations Pressure Air Temp Water Temp Dewpoint Dewpoint Depression Visibility Wind Speed Wind Dir Waves Ship Positions

Burgtor

Last reported at 2016-May-31 21:33 UTC. Time now 2016-May-31 21:50 UTC.
Position N 53°31' E 009°57'.

Length 87 m; draft 3.2 m.

Type: Cargo ship. MMSI: 304665000.

Date/timePositionNaut miles runAvg speedWind from/ knotsBaromVisibWave heightAir tempDewpointWater temp
2016-May-31 21:33N 53°31' E 009°57'1 1.4
2016-May-31 20:33N 53°32' E 009°56'1110.9
2016-May-31 19:34N 53°35' E 009°38'3 3.3
2016-May-31 18:31N 53°37' E 009°33'0 0.0
2016-May-31 17:31N 53°37' E 009°33'0 0.1
2016-May-31 16:31N 53°37' E 009°33'0 0.1
2016-May-31 15:25N 53°37' E 009°33'0 0.0
2016-May-31 14:31N 53°37' E 009°33'0 0.0
2016-May-31 13:31N 53°37' E 009°33'0 0.0
2016-May-31 12:31N 53°37' E 009°33'0 0.0
2016-May-31 11:31N 53°37' E 009°33'0 0.0
2016-May-31 10:31N 53°37' E 009°33'0 0.1
2016-May-31 09:31N 53°37' E 009°33'0 0.0
2016-May-31 08:31N 53°37' E 009°33'0 0.0
2016-May-31 07:31N 53°37' E 009°33'0 0.0
2016-May-31 06:31N 53°37' E 009°33'0 0.0
2016-May-31 04:34N 53°37' E 009°33'0 0.1
2016-May-31 03:30N 53°37' E 009°33'0 0.0
2016-May-31 02:30N 53°37' E 009°33'0 0.0
2016-May-31 01:33N 53°37' E 009°33'0 0.0
2016-May-31 00:33N 53°37' E 009°33'0 0.0
2016-May-30 23:33N 53°37' E 009°33'0 0.0
2016-May-30 22:33N 53°37' E 009°33'0 0.0
2016-May-30 21:33N 53°37' E 009°33'0 0.1
2016-May-30 20:33N 53°37' E 009°33'0 0.0
2016-May-30 19:33N 53°37' E 009°33'0 0.0
2016-May-30 18:30N 53°37' E 009°33'0 0.0
2016-May-30 17:33N 53°37' E 009°33'0 0.0
2016-May-30 16:30N 53°37' E 009°33'0 0.1
2016-May-30 15:33N 53°37' E 009°33'0 0.0
2016-May-30 14:33N 53°37' E 009°33'0 0.0
2016-May-30 13:33N 53°37' E 009°33'0 0.0
2016-May-30 12:33N 53°37' E 009°33'0 0.0
2016-May-30 11:30N 53°37' E 009°33'0 0.0
2016-May-30 10:33N 53°37' E 009°33'0 0.1
2016-May-30 09:33N 53°37' E 009°33'0 0.1
2016-May-30 08:30N 53°37' E 009°33'0 0.0
2016-May-30 07:30N 53°37' E 009°33'0 0.0
2016-May-30 06:30N 53°37' E 009°33'0 0.0
2016-May-30 05:33N 53°37' E 009°33'0 0.0
2016-May-30 04:33N 53°37' E 009°33'0 0.0
2016-May-30 03:33N 53°37' E 009°33'0 0.1
2016-May-30 02:30N 53°37' E 009°33'0 0.0
2016-May-30 01:30N 53°37' E 009°33'0 0.0
2016-May-30 00:33N 53°37' E 009°33'0 0.0
2016-May-29 23:33N 53°37' E 009°33'0 0.0
2016-May-29 22:33N 53°37' E 009°33'0 0.0
2016-May-29 21:30N 53°37' E 009°33'0 0.1
2016-May-29 20:33N 53°37' E 009°33'0 0.1
2016-May-29 19:33N 53°37' E 009°33'0 0.0
2016-May-29 18:33N 53°37' E 009°33'0 0.0
2016-May-29 17:32N 53°37' E 009°33'0 0.0
2016-May-29 16:32N 53°37' E 009°33'0 0.0
2016-May-29 15:32N 53°37' E 009°33'0 0.1
2016-May-29 14:32N 53°37' E 009°33'0 0.1
2016-May-29 13:29N 53°37' E 009°33'0 0.4
2016-May-29 12:33N 53°37' E 009°33'6 5.8
2016-May-29 11:33N 53°43' E 009°29'7 6.9
2016-May-29 10:33N 53°48' E 009°22'6 6.2
2016-May-29 09:33N 53°52' E 009°15'6 6.0
2016-May-29 08:34N 53°52' E 009°05'7 6.9
2016-May-29 07:33N 53°50' E 008°53'7 7.5
2016-May-29 06:33N 53°54' E 008°42'8 7.9
2016-May-29 05:32N 53°58' E 008°31'8 8.3
2016-May-29 04:31N 53°59' E 008°16'9 9.0
2016-May-29 03:33N 53°58' E 008°02'6 6.0
2016-May-29 02:34N 53°56' E 007°52'7 7.5
2016-May-29 01:33N 53°55' E 007°40'8 7.6
2016-May-29 00:33N 53°53' E 007°27'8 7.8
2016-May-28 23:33N 53°51' E 007°14'8 8.0
2016-May-28 22:33N 53°50' E 007°01'8 8.2
2016-May-28 21:33N 53°48' E 006°47'8 7.6
2016-May-28 20:33N 53°46' E 006°35'7 6.9
2016-May-28 19:33N 53°44' E 006°24'7 6.8
2016-May-28 18:33N 53°42' E 006°13'8 7.6
2016-May-28 17:33N 53°40' E 006°00'8 7.5
2016-May-28 16:33N 53°38' E 005°48'7 7.1
2016-May-28 15:33N 53°36' E 005°37'7 7.1
2016-May-28 14:33N 53°33' E 005°26'6 6.4
2016-May-28 13:33N 53°31' E 005°15'6 6.1
2016-May-28 12:33N 53°29' E 005°06'8 6.8
2016-May-28 11:23N 53°26' E 004°53'32 7.5
2016-May-28 07:05N 52°60' E 004°22'59 7.8
2016-May-27 23:33N 52°44' E 002°48'9 9.0
2016-May-27 22:33N 52°44' E 002°33'18 9.2
2016-May-27 20:33N 52°44' E 002°03'8 8.1
2016-May-27 19:33N 52°47' E 001°50'8 7.5
2016-May-27 18:33N 52°51' E 001°40'7 6.9
2016-May-27 17:33N 52°55' E 001°31'6 6.1
2016-May-27 16:33N 52°58' E 001°22'8 6.5
2016-May-27 15:17N 53°01' E 001°09'5 7.0
2016-May-27 14:31N 53°04' E 001°01'8 7.9
2016-May-27 13:33N 53°09' E 000°52'8 7.8
2016-May-27 12:33N 53°14' E 000°43'7 7.3
2016-May-27 11:33N 53°09' E 000°35'9 8.8
2016-May-27 10:33N 53°02' E 000°27'6 5.6
2016-May-27 09:32N 52°57' E 000°21'0 0.1
2016-May-27 08:33N 52°57' E 000°21'0 0.0
2016-May-27 07:31N 52°57' E 000°21'0 0.0
2016-May-27 06:31N 52°57' E 000°21'0 0.0
2016-May-27 05:31N 52°57' E 000°21'0 0.0
2016-May-27 04:32N 52°57' E 000°21'0 0.1
2016-May-27 03:31N 52°57' E 000°21'0 0.0
2016-May-27 02:28N 52°57' E 000°21'0 0.0
2016-May-27 01:31N 52°57' E 000°21'0 0.0
2016-May-27 00:31N 52°57' E 000°21'0 0.0
2016-May-26 23:31N 52°57' E 000°21'0 0.0
2016-May-26 22:31N 52°57' E 000°21'0 0.1
2016-May-26 21:31N 52°57' E 000°21'0 0.0
2016-May-26 20:31N 52°57' E 000°21'0 0.0
2016-May-26 19:31N 52°57' E 000°21'0 0.0
2016-May-26 18:31N 52°57' E 000°21'0 0.0
2016-May-26 17:33N 52°57' E 000°21'0 0.0
2016-May-26 16:28N 52°57' E 000°21'0 0.1
2016-May-26 15:31N 52°57' E 000°21'0 0.0
2016-May-26 14:31N 52°57' E 000°21'0 0.0
2016-May-26 13:28N 52°57' E 000°21'0 0.0
2016-May-26 12:28N 52°57' E 000°21'0 0.0
2016-May-26 11:31N 52°57' E 000°21'0 0.0
2016-May-26 10:28N 52°57' E 000°21'0 0.0
2016-May-26 09:31N 52°57' E 000°21'0 0.1
2016-May-26 08:31N 52°57' E 000°21'0 0.1
2016-May-26 07:28N 52°57' E 000°21'0 0.0
2016-May-26 06:31N 52°57' E 000°21'0 0.0
2016-May-26 05:28N 52°57' E 000°21'0 0.0
2016-May-26 04:31N 52°57' E 000°21'0 0.1
2016-May-26 03:31N 52°57' E 000°21'0 0.0
2016-May-26 02:34N 52°57' E 000°21'0 0.0
2016-May-26 01:34N 52°57' E 000°21'0 0.0
2016-May-26 00:33N 52°57' E 000°21'0 0.0
2016-May-25 23:33N 52°57' E 000°21'0 0.0
2016-May-25 22:33N 52°57' E 000°21'0 0.0
2016-May-25 21:31N 52°57' E 000°21'0 0.1
2016-May-25 20:33N 52°57' E 000°21'0 0.0
2016-May-25 19:33N 52°57' E 000°21'0 0.0
2016-May-25 18:33N 52°57' E 000°21'0 0.0
2016-May-25 17:30N 52°57' E 000°21'0 0.0
2016-May-25 16:33N 52°57' E 000°21'0 0.0
2016-May-25 15:27N 52°57' E 000°21'0 0.0
2016-May-25 14:33N 52°57' E 000°21'0 0.1
2016-May-25 13:33N 52°57' E 000°21'0 0.0
2016-May-25 12:33N 52°57' E 000°21'0 0.0
2016-May-25 11:18N 52°57' E 000°21'0 0.0
2016-May-25 10:33N 52°57' E 000°21'0 0.1
2016-May-25 09:33N 52°57' E 000°21'0 0.0
2016-May-25 08:30N 52°57' E 000°21'0 0.0
2016-May-25 07:33N 52°57' E 000°21'0 0.0
2016-May-25 06:33N 52°57' E 000°21'0 0.0
2016-May-25 05:33N 52°57' E 000°21'0 0.0
2016-May-25 04:30N 52°57' E 000°21'0 0.0
2016-May-25 03:27N 52°57' E 000°21'0 0.0
2016-May-25 02:33N 52°57' E 000°21'0 0.0
2016-May-25 01:33N 52°57' E 000°21'0 0.1
2016-May-25 00:30N 52°57' E 000°21'0 0.0
2016-May-24 23:30N 52°57' E 000°21'0 0.0
2016-May-24 22:30N 52°57' E 000°21'2 2.4
2016-May-24 21:33N 52°56' E 000°18'8 7.5
2016-May-24 20:33N 52°49' E 000°13'2 2.4
2016-May-24 19:32N 52°47' E 000°12'0 0.0
2016-May-24 18:26N 52°47' E 000°12'0 0.0
2016-May-24 17:32N 52°47' E 000°12'0 0.0
2016-May-24 16:32N 52°47' E 000°12'0 0.0
2016-May-24 15:32N 52°47' E 000°12'0 0.0
2016-May-24 14:26N 52°47' E 000°12'0 0.0
2016-May-24 13:32N 52°47' E 000°12'0 0.0
2016-May-24 12:32N 52°47' E 000°12'0 0.0
2016-May-24 11:26N 52°47' E 000°12'0 0.0
2016-May-24 10:32N 52°47' E 000°12'0 0.0
2016-May-24 09:29N 52°47' E 000°12'0 0.0
2016-May-24 08:32N 52°47' E 000°12'0 0.0
2016-May-24 07:32N 52°47' E 000°12'0 0.0
2016-May-24 06:26N 52°47' E 000°12'0 0.0
2016-May-24 05:32N 52°47' E 000°12'0 0.0
2016-May-24 04:29N 52°47' E 000°12'0 0.0
2016-May-24 03:32N 52°47' E 000°12'0 0.0
2016-May-24 02:29N 52°47' E 000°12'0 0.0
2016-May-24 01:32N 52°47' E 000°12'0 0.0
2016-May-24 00:32N 52°47' E 000°12'0 0.0
2016-May-23 23:29N 52°47' E 000°12'0 0.0
2016-May-23 22:29N 52°47' E 000°12'0 0.0
2016-May-23 21:29N 52°47' E 000°12'0 0.0
2016-May-23 20:32N 52°47' E 000°12'0 0.0
2016-May-23 19:29N 52°47' E 000°12'0 0.0
2016-May-23 18:32N 52°47' E 000°12'0 0.0
2016-May-23 17:32N 52°47' E 000°12'0 0.0
2016-May-23 16:32N 52°47' E 000°12'0 0.0
2016-May-23 15:26N 52°47' E 000°12'0 0.0
2016-May-23 14:32N 52°47' E 000°12'0 0.0
2016-May-23 13:32N 52°47' E 000°12'0 0.0
2016-May-23 12:32N 52°47' E 000°12'0 0.0
2016-May-23 11:33N 52°47' E 000°12'0 0.0
2016-May-23 10:33N 52°47' E 000°12'0 0.0
2016-May-23 09:34N 52°47' E 000°12'0 0.0
2016-May-23 08:33N 52°47' E 000°12'1 1.1
2016-May-23 07:33N 52°48' E 000°13'4 3.9
2016-May-23 06:33N 52°52' E 000°14'3 3.0
2016-May-23 05:33N 52°54' E 000°16'1 1.4
2016-May-23 04:33N 52°56' E 000°17'5 5.4
2016-May-23 03:33N 52°60' E 000°23'4 3.8
2016-May-23 02:33N 53°03' E 000°27'4 4.0
2016-May-23 01:33N 53°06' E 000°31'5 4.6
2016-May-23 00:33N 53°10' E 000°35'5 4.6
2016-May-22 23:33N 53°13' E 000°39'3 3.4
2016-May-22 22:32N 53°14' E 000°45'5 5.3
2016-May-22 21:33N 53°11' E 000°52'5 5.3
2016-May-22 20:33N 53°07' E 000°58'5 5.0
2016-May-22 19:31N 53°04' E 001°04'5 4.9
2016-May-22 18:33N 53°01' E 001°11'5 5.1
2016-May-22 17:33N 52°59' E 001°19'5 5.0
2016-May-22 16:34N 52°57' E 001°26'6 5.8
2016-May-22 15:33N 52°54' E 001°34'7 6.9
2016-May-22 14:33N 52°50' E 001°44'7 6.5
2016-May-22 13:33N 52°46' E 001°53'  

Dump ship's entire track history